This is the latest recevied weather packets stored in our database for station/object OH5GWF-1. If no packets are shown the sender has not sent any weather packets the latest 1 day(s).
| Time | Temp. | Humidity | Pressure | Rain* | Wind** | Luminosity | Snow |
|---|---|---|---|---|---|---|---|
| 1778047812 | 11.11° C | 58% | 1010.7 hPa | 0 mm | - | - | - |
| 1778047389 | 11.67° C | 59% | 1010.6 hPa | 0 mm | - | - | - |
| 1778046967 | 10.56° C | 63% | 1010.6 hPa | 0 mm | - | - | - |
| 1778046122 | 8.33° C | 67% | 1010.3 hPa | 0 mm | - | - | - |
| 1778044022 | 4.44° C | 73% | 1010.2 hPa | 0 mm | - | - | - |
| 1778043191 | 3.89° C | 75% | 1009.9 hPa | 0 mm | - | - | - |
| 1778042769 | 3.33° C | 77% | 1009.9 hPa | 0 mm | - | - | - |
| 1778042347 | 2.78° C | 77% | 1009.8 hPa | 0 mm | - | - | - |
| 1778041923 | 2.78° C | 77% | 1009.8 hPa | 0 mm | - | - | - |
| 1778041501 | 2.78° C | 77% | 1009.7 hPa | 0 mm | - | - | - |
| 1778041091 | 2.78° C | 79% | 1009.6 hPa | 0 mm | - | - | - |
| 1778040667 | 2.22° C | 81% | 1009.6 hPa | 0 mm | - | - | - |
| 1778040245 | 2.22° C | 82% | 1009.7 hPa | 0 mm | - | - | - |
| 1778039824 | 1.67° C | 84% | 1009.5 hPa | 0 mm | - | - | - |
| 1778038993 | 1.11° C | 85% | 1009.3 hPa | 0 mm | - | - | - |
| 1778038150 | 0° C | 87% | 1009.1 hPa | 0 mm | - | - | - |
| 1778037727 | 0° C | 87% | 1009 hPa | 0 mm | - | - | - |
| 1778036885 | -1.11° C | 88% | 1008.9 hPa | 0 mm | - | - | - |
| 1778036462 | -1.67° C | 88% | 1008.8 hPa | 0 mm | - | - | - |
| 1778034785 | -1.67° C | 87% | 1008.7 hPa | 0 mm | - | - | - |
| 1778034362 | -1.67° C | 87% | 1008.6 hPa | 0 mm | - | - | - |
| 1778033952 | -1.67° C | 86% | 1008.4 hPa | 0 mm | - | - | - |
| 1778032685 | -1.11° C | 86% | 1008.2 hPa | 0 mm | - | - | - |
| 1778032264 | -1.11° C | 86% | 1008.3 hPa | 0 mm | - | - | - |
| 1778031432 | -1.11° C | 85% | 1008 hPa | 0 mm | - | - | - |
* Rain latest hour (hover to see other rain measurements)
** Current wind speed in m/s (hover to see current wind gust speed)